sensor_id;sensor_type;location;lat;lon;timestamp;pressure;altitude;pressure_sealevel;temperature;humidity
18323;BME280;9287;49.456;11.064;2023-04-23T00:00:42;97446.34;;;15.43;100.00
18323;BME280;9287;49.456;11.064;2023-04-23T00:03:13;97435.75;;;15.38;100.00
18323;BME280;9287;49.456;11.064;2023-04-23T00:05:45;97438.91;;;15.32;100.00
18323;BME280;9287;49.456;11.064;2023-04-23T00:08:18;97432.22;;;15.41;100.00
18323;BME280;9287;49.456;11.064;2023-04-23T00:11:07;97436.91;;;15.44;100.00
18323;BME280;9287;49.456;11.064;2023-04-23T00:13:37;97427.47;;;15.45;100.00
18323;BME280;9287;49.456;11.064;2023-04-23T00:16:09;97420.44;;;15.40;100.00
18323;BME280;9287;49.456;11.064;2023-04-23T00:18:40;97431.00;;;15.42;100.00
18323;BME280;9287;49.456;11.064;2023-04-23T00:21:13;97428.25;;;15.42;100.00
18323;BME280;9287;49.456;11.064;2023-04-23T00:23:43;97434.53;;;15.42;100.00
18323;BME280;9287;49.456;11.064;2023-04-23T00:26:16;97427.47;;;15.45;100.00
18323;BME280;9287;49.456;11.064;2023-04-23T00:28:47;97435.31;;;15.53;100.00
18323;BME280;9287;49.456;11.064;2023-04-23T00:31:17;97431.38;;;15.54;100.00
18323;BME280;9287;49.456;11.064;2023-04-23T00:33:48;97438.47;;;15.48;100.00
18323;BME280;9287;49.456;11.064;2023-04-23T00:36:19;97443.97;;;15.48;100.00
18323;BME280;9287;49.456;11.064;2023-04-23T00:38:48;97438.50;;;15.55;100.00
18323;BME280;9287;49.456;11.064;2023-04-23T00:41:18;97436.50;;;15.49;100.00
18323;BME280;9287;49.456;11.064;2023-04-23T00:43:51;97432.97;;;15.52;100.00
18323;BME280;9287;49.456;11.064;2023-04-23T00:46:19;97437.66;;;15.55;100.00
18323;BME280;9287;49.456;11.064;2023-04-23T00:48:49;97444.78;;;15.56;100.00
18323;BME280;9287;49.456;11.064;2023-04-23T00:51:20;97447.91;;;15.51;100.00
18323;BME280;9287;49.456;11.064;2023-04-23T00:53:50;97443.16;;;15.62;100.00
18323;BME280;9287;49.456;11.064;2023-04-23T00:56:20;97435.34;;;15.57;99.63
18323;BME280;9287;49.456;11.064;2023-04-23T00:58:56;97432.97;;;15.45;100.00
18323;BME280;9287;49.456;11.064;2023-04-23T01:01:27;97425.88;;;15.51;100.00
18323;BME280;9287;49.456;11.064;2023-04-23T01:03:57;97422.34;;;15.47;98.64
18323;BME280;9287;49.456;11.064;2023-04-23T01:06:27;97414.13;;;15.40;100.00
18323;BME280;9287;49.456;11.064;2023-04-23T01:08:59;97420.78;;;15.53;100.00
18323;BME280;9287;49.456;11.064;2023-04-23T01:11:32;97420.78;;;15.49;99.30
18323;BME280;9287;49.456;11.064;2023-04-23T01:14:01;97426.72;;;15.41;100.00
18323;BME280;9287;49.456;11.064;2023-04-23T01:16:31;97434.19;;;15.37;100.00
18323;BME280;9287;49.456;11.064;2023-04-23T01:19:09;97432.22;;;15.33;100.00
18323;BME280;9287;49.456;11.064;2023-04-23T01:21:43;97440.06;;;15.39;100.00
18323;BME280;9287;49.456;11.064;2023-04-23T01:24:13;97422.78;;;15.35;100.00
18323;BME280;9287;49.456;11.064;2023-04-23T01:26:44;97432.25;;;15.23;100.00
18323;BME280;9287;49.456;11.064;2023-04-23T01:29:15;97419.69;;;15.22;100.00
18323;BME280;9287;49.456;11.064;2023-04-23T01:31:45;97429.13;;;15.21;100.00
18323;BME280;9287;49.456;11.064;2023-04-23T01:34:14;97430.28;;;15.16;100.00
18323;BME280;9287;49.456;11.064;2023-04-23T01:36:44;97431.47;;;15.15;100.00
18323;BME280;9287;49.456;11.064;2023-04-23T01:39:20;97420.88;;;15.10;100.00
18323;BME280;9287;49.456;11.064;2023-04-23T01:41:48;97426.78;;;15.05;100.00
18323;BME280;9287;49.456;11.064;2023-04-23T01:44:16;97433.06;;;15.06;100.00
18323;BME280;9287;49.456;11.064;2023-04-23T01:46:44;97429.53;;;15.02;100.00
18323;BME280;9287;49.456;11.064;2023-04-23T01:49:15;97433.84;;;14.99;100.00
18323;BME280;9287;49.456;11.064;2023-04-23T01:51:55;97431.88;;;15.03;100.00
18323;BME280;9287;49.456;11.064;2023-04-23T01:54:25;97433.06;;;15.02;100.00
18323;BME280;9287;49.456;11.064;2023-04-23T01:56:54;97439.34;;;15.03;100.00
18323;BME280;9287;49.456;11.064;2023-04-23T01:59:26;97427.53;;;15.09;100.00
18323;BME280;9287;49.456;11.064;2023-04-23T02:01:55;97440.13;;;15.03;100.00
18323;BME280;9287;49.456;11.064;2023-04-23T02:04:26;97444.06;;;15.02;100.00
18323;BME280;9287;49.456;11.064;2023-04-23T02:06:56;97436.22;;;14.97;100.00
18323;BME280;9287;49.456;11.064;2023-04-23T02:09:28;97437.78;;;14.91;100.00
18323;BME280;9287;49.456;11.064;2023-04-23T02:11:56;97437.00;;;14.94;100.00
18323;BME280;9287;49.456;11.064;2023-04-23T02:14:27;97436.22;;;14.86;100.00
18323;BME280;9287;49.456;11.064;2023-04-23T02:16:55;97437.78;;;14.84;100.00
18323;BME280;9287;49.456;11.064;2023-04-23T02:19:25;97434.66;;;14.78;100.00
18323;BME280;9287;49.456;11.064;2023-04-23T02:21:57;97444.88;;;14.85;100.00
18323;BME280;9287;49.456;11.064;2023-04-23T02:24:32;97447.22;;;14.83;100.00
18323;BME280;9287;49.456;11.064;2023-04-23T02:27:00;97442.50;;;14.80;100.00
18323;BME280;9287;49.456;11.064;2023-04-23T02:29:29;97441.72;;;14.79;100.00
18323;BME280;9287;49.456;11.064;2023-04-23T02:31:59;97447.59;;;14.78;100.00
18323;BME280;9287;49.456;11.064;2023-04-23T02:34:27;97453.50;;;14.80;100.00
18323;BME280;9287;49.456;11.064;2023-04-23T02:36:58;97454.28;;;14.80;100.00
18323;BME280;9287;49.456;11.064;2023-04-23T02:39:28;97446.44;;;14.82;100.00
18323;BME280;9287;49.456;11.064;2023-04-23T02:42:03;97452.31;;;14.81;100.00
18323;BME280;9287;49.456;11.064;2023-04-23T02:44:36;97458.19;;;14.76;100.00
18323;BME280;9287;49.456;11.064;2023-04-23T02:47:07;97455.44;;;14.76;100.00
18323;BME280;9287;49.456;11.064;2023-04-23T02:49:36;97455.84;;;14.74;100.00
18323;BME280;9287;49.456;11.064;2023-04-23T02:52:04;97462.13;;;14.75;100.00
18323;BME280;9287;49.456;11.064;2023-04-23T02:54:32;97466.03;;;14.74;100.00
18323;BME280;9287;49.456;11.064;2023-04-23T02:57:07;97457.41;;;14.79;100.00
18323;BME280;9287;49.456;11.064;2023-04-23T02:59:36;97455.84;;;14.71;100.00
18323;BME280;9287;49.456;11.064;2023-04-23T03:02:06;97462.13;;;14.71;100.00
18323;BME280;9287;49.456;11.064;2023-04-23T03:04:38;97453.50;;;14.69;100.00
18323;BME280;9287;49.456;11.064;2023-04-23T03:07:10;97458.22;;;14.69;100.00
18323;BME280;9287;49.456;11.064;2023-04-23T03:09:43;97465.66;;;14.65;100.00
18323;BME280;9287;49.456;11.064;2023-04-23T03:12:15;97469.19;;;14.54;100.00
18323;BME280;9287;49.456;11.064;2023-04-23T03:14:44;97467.63;;;14.60;100.00
18323;BME280;9287;49.456;11.064;2023-04-23T03:17:13;97466.81;;;14.49;100.00
18323;BME280;9287;49.456;11.064;2023-04-23T03:19:41;97462.91;;;14.50;100.00
18323;BME280;9287;49.456;11.064;2023-04-23T03:22:09;97468.41;;;14.50;100.00
18323;BME280;9287;49.456;11.064;2023-04-23T03:24:37;97473.88;;;14.50;100.00
18323;BME280;9287;49.456;11.064;2023-04-23T03:27:06;97485.66;;;14.47;100.00
18323;BME280;9287;49.456;11.064;2023-04-23T03:29:38;97476.97;;;14.38;100.00
18323;BME280;9287;49.456;11.064;2023-04-23T03:32:07;97480.91;;;14.37;100.00
18323;BME280;9287;49.456;11.064;2023-04-23T03:34:36;97485.63;;;14.40;100.00
18323;BME280;9287;49.456;11.064;2023-04-23T03:37:20;97491.09;;;14.37;100.00
18323;BME280;9287;49.456;11.064;2023-04-23T03:39:50;97489.88;;;14.27;100.00
18323;BME280;9287;49.456;11.064;2023-04-23T03:42:20;97488.72;;;14.28;100.00
18323;BME280;9287;49.456;11.064;2023-04-23T03:44:51;97498.09;;;14.20;100.00
18323;BME280;9287;49.456;11.064;2023-04-23T03:47:24;97492.59;;;14.20;100.00
18323;BME280;9287;49.456;11.064;2023-04-23T03:49:53;97498.09;;;14.20;100.00
18323;BME280;9287;49.456;11.064;2023-04-23T03:52:21;97502.81;;;14.16;100.00
18323;BME280;9287;49.456;11.064;2023-04-23T03:54:51;97499.25;;;14.12;100.00
18323;BME280;9287;49.456;11.064;2023-04-23T03:57:21;97506.72;;;14.11;100.00
18323;BME280;9287;49.456;11.064;2023-04-23T03:59:51;97504.34;;;14.10;100.00
18323;BME280;9287;49.456;11.064;2023-04-23T04:02:19;97509.84;;;14.10;100.00
18323;BME280;9287;49.456;11.064;2023-04-23T04:04:50;97510.59;;;14.00;100.00
18323;BME280;9287;49.456;11.064;2023-04-23T04:07:59;97517.66;;;14.01;100.00
18323;BME280;9287;49.456;11.064;2023-04-23T04:10:44;97518.41;;;13.98;100.00
18323;BME280;9287;49.456;11.064;2023-04-23T04:13:25;97516.03;;;13.92;100.00
18323;BME280;9287;49.456;11.064;2023-04-23T04:16:15;97519.13;;;13.80;100.00
18323;BME280;9287;49.456;11.064;2023-04-23T04:18:50;97515.94;;;13.71;100.00
18323;BME280;9287;49.456;11.064;2023-04-23T04:21:24;97515.91;;;13.64;100.00
18323;BME280;9287;49.456;11.064;2023-04-23T04:24:27;97511.94;;;13.58;100.00
18323;BME280;9287;49.456;11.064;2023-04-23T04:27:06;97516.66;;;13.61;100.00
18323;BME280;9287;49.456;11.064;2023-04-23T04:29:41;97519.72;;;13.49;100.00
18323;BME280;9287;49.456;11.064;2023-04-23T04:32:20;97519.72;;;13.45;100.00
18323;BME280;9287;49.456;11.064;2023-04-23T04:34:52;97516.59;;;13.47;100.00
18323;BME280;9287;49.456;11.064;2023-04-23T04:37:20;97524.31;;;13.31;100.00
18323;BME280;9287;49.456;11.064;2023-04-23T04:39:51;97524.72;;;13.33;100.00
18323;BME280;9287;49.456;11.064;2023-04-23T04:42:21;97523.56;;;13.37;100.00
18323;BME280;9287;49.456;11.064;2023-04-23T04:44:57;97516.88;;;13.35;100.00
18323;BME280;9287;49.456;11.064;2023-04-23T04:47:40;97524.34;;;13.38;100.00
18323;BME280;9287;49.456;11.064;2023-04-23T04:50:24;97534.13;;;13.32;100.00
18323;BME280;9287;49.456;11.064;2023-04-23T04:52:59;97533.69;;;13.30;100.00
18323;BME280;9287;49.456;11.064;2023-04-23T04:55:42;97535.28;;;13.31;100.00
18323;BME280;9287;49.456;11.064;2023-04-23T04:58:30;97531.38;;;13.35;100.00
18323;BME280;9287;49.456;11.064;2023-04-23T05:01:13;97533.75;;;13.37;100.00
18323;BME280;9287;49.456;11.064;2023-04-23T05:03:58;97539.97;;;13.34;100.00
18323;BME280;9287;49.456;11.064;2023-04-23T05:06:31;97539.13;;;13.22;100.00
18323;BME280;9287;49.456;11.064;2023-04-23T05:09:00;97540.78;;;13.31;100.00
18323;BME280;9287;49.456;11.064;2023-04-23T05:11:31;97546.59;;;13.26;100.00
18323;BME280;9287;49.456;11.064;2023-04-23T05:14:05;97552.84;;;13.22;100.00
18323;BME280;9287;49.456;11.064;2023-04-23T05:16:37;97554.00;;;13.21;100.00
18323;BME280;9287;49.456;11.064;2023-04-23T05:19:24;97562.56;;;13.16;100.00
18323;BME280;9287;49.456;11.064;2023-04-23T05:21:53;97563.38;;;13.20;100.00
18323;BME280;9287;49.456;11.064;2023-04-23T05:24:24;97549.72;;;13.24;100.00
18323;BME280;9287;49.456;11.064;2023-04-23T05:27:10;97554.75;;;13.15;100.00
18323;BME280;9287;49.456;11.064;2023-04-23T05:29:52;97550.84;;;13.16;100.00
18323;BME280;9287;49.456;11.064;2023-04-23T05:32:29;97558.63;;;13.14;100.00
18323;BME280;9287;49.456;11.064;2023-04-23T05:35:15;97563.31;;;13.13;100.00
18323;BME280;9287;49.456;11.064;2023-04-23T05:38:06;97564.97;;;13.21;100.00
18323;BME280;9287;49.456;11.064;2023-04-23T05:40:36;97561.09;;;13.26;100.00
18323;BME280;9287;49.456;11.064;2023-04-23T05:43:14;97564.53;;;13.16;100.00
18323;BME280;9287;49.456;11.064;2023-04-23T05:45:44;97564.88;;;13.14;100.00
18323;BME280;9287;49.456;11.064;2023-04-23T05:48:15;97565.66;;;13.11;100.00
18323;BME280;9287;49.456;11.064;2023-04-23T05:51:04;97567.88;;;12.99;100.00
18323;BME280;9287;49.456;11.064;2023-04-23T05:53:42;97578.06;;;12.98;100.00
18323;BME280;9287;49.456;11.064;2023-04-23T05:56:18;97580.84;;;13.05;100.00
18323;BME280;9287;49.456;11.064;2023-04-23T05:58:47;97584.41;;;13.09;100.00
18323;BME280;9287;49.456;11.064;2023-04-23T06:01:18;97585.91;;;13.03;100.00
18323;BME280;9287;49.456;11.064;2023-04-23T06:03:52;97593.69;;;12.94;100.00
18323;BME280;9287;49.456;11.064;2023-04-23T06:06:29;97588.94;;;12.91;100.00
18323;BME280;9287;49.456;11.064;2023-04-23T06:08:58;97595.69;;;13.01;100.00
18323;BME280;9287;49.456;11.064;2023-04-23T06:11:26;97597.72;;;13.07;100.00
18323;BME280;9287;49.456;11.064;2023-04-23T06:13:54;97598.47;;;13.04;100.00
18323;BME280;9287;49.456;11.064;2023-04-23T06:16:23;97596.91;;;13.07;100.00
18323;BME280;9287;49.456;11.064;2023-04-23T06:18:51;97604.34;;;13.06;100.00
18323;BME280;9287;49.456;11.064;2023-04-23T06:21:19;97596.97;;;13.10;100.00
18323;BME280;9287;49.456;11.064;2023-04-23T06:23:49;97596.06;;;12.99;100.00
18323;BME280;9287;49.456;11.064;2023-04-23T06:26:17;97592.22;;;13.07;100.00
18323;BME280;9287;49.456;11.064;2023-04-23T06:28:45;97582.84;;;13.08;100.00
18323;BME280;9287;49.456;11.064;2023-04-23T06:31:13;97590.66;;;13.06;100.00
18323;BME280;9287;49.456;11.064;2023-04-23T06:33:42;97587.47;;;13.01;100.00
18323;BME280;9287;49.456;11.064;2023-04-23T06:36:10;97584.41;;;13.09;100.00
18323;BME280;9287;49.456;11.064;2023-04-23T06:38:40;97583.59;;;13.05;100.00
18323;BME280;9287;49.456;11.064;2023-04-23T06:41:10;97581.25;;;13.07;100.00
18323;BME280;9287;49.456;11.064;2023-04-23T06:43:38;97583.66;;;13.12;100.00
18323;BME280;9287;49.456;11.064;2023-04-23T06:46:05;97583.56;;;13.02;100.00
18323;BME280;9287;49.456;11.064;2023-04-23T06:48:33;97591.47;;;13.10;100.00
18323;BME280;9287;49.456;11.064;2023-04-23T06:51:01;97583.63;;;13.09;100.00
18323;BME280;9287;49.456;11.064;2023-04-23T06:53:29;97578.06;;;12.98;100.00
18323;BME280;9287;49.456;11.064;2023-04-23T06:55:57;97572.59;;;12.98;100.00
18323;BME280;9287;49.456;11.064;2023-04-23T06:58:26;97578.44;;;13.00;100.00
18323;BME280;9287;49.456;11.064;2023-04-23T07:00:57;97574.28;;;13.13;100.00
18323;BME280;9287;49.456;11.064;2023-04-23T07:03:26;97581.00;;;13.19;100.00
18323;BME280;9287;49.456;11.064;2023-04-23T07:05:54;97576.75;;;13.26;100.00
18323;BME280;9287;49.456;11.064;2023-04-23T07:08:22;97570.50;;;13.29;100.00
18323;BME280;9287;49.456;11.064;2023-04-23T07:10:51;97575.25;;;13.32;100.00
18323;BME280;9287;49.456;11.064;2023-04-23T07:13:20;97578.44;;;13.41;100.00
18323;BME280;9287;49.456;11.064;2023-04-23T07:15:49;97579.31;;;13.55;100.00
18323;BME280;9287;49.456;11.064;2023-04-23T07:18:17;97580.09;;;13.56;100.00
18323;BME280;9287;49.456;11.064;2023-04-23T07:20:45;97573.81;;;13.52;100.00
18323;BME280;9287;49.456;11.064;2023-04-23T07:23:12;97573.81;;;13.52;100.00
18323;BME280;9287;49.456;11.064;2023-04-23T07:25:40;97582.41;;;13.47;100.00
18323;BME280;9287;49.456;11.064;2023-04-23T07:28:08;97587.50;;;13.48;100.00
18323;BME280;9287;49.456;11.064;2023-04-23T07:30:36;97574.59;;;13.52;100.00
18323;BME280;9287;49.456;11.064;2023-04-23T07:33:05;97583.66;;;13.60;100.00
18323;BME280;9287;49.456;11.064;2023-04-23T07:35:33;97579.75;;;13.61;100.00
18323;BME280;9287;49.456;11.064;2023-04-23T07:38:02;97568.28;;;13.45;100.00
18323;BME280;9287;49.456;11.064;2023-04-23T07:40:30;97571.78;;;13.42;100.00
18323;BME280;9287;49.456;11.064;2023-04-23T07:42:58;97580.16;;;13.63;100.00
18323;BME280;9287;49.456;11.064;2023-04-23T07:45:27;97574.75;;;14.50;100.00
18323;BME280;9287;49.456;11.064;2023-04-23T07:47:55;97564.09;;;14.41;100.00
18323;BME280;9287;49.456;11.064;2023-04-23T07:50:24;97562.53;;;14.40;100.00
18323;BME280;9287;49.456;11.064;2023-04-23T07:52:52;97558.63;;;14.41;100.00
18323;BME280;9287;49.456;11.064;2023-04-23T07:55:22;97556.94;;;14.19;100.00
18323;BME280;9287;49.456;11.064;2023-04-23T07:57:49;97563.63;;;14.25;100.00
18323;BME280;9287;49.456;11.064;2023-04-23T08:00:17;97571.75;;;13.97;100.00
18323;BME280;9287;49.456;11.064;2023-04-23T08:02:46;97559.81;;;13.71;100.00
18323;BME280;9287;49.456;11.064;2023-04-23T08:05:14;97561.44;;;13.79;100.00
18323;BME280;9287;49.456;11.064;2023-04-23T08:07:43;97566.13;;;13.75;100.00
18323;BME280;9287;49.456;11.064;2023-04-23T08:10:11;97551.94;;;13.63;100.00
18323;BME280;9287;49.456;11.064;2023-04-23T08:12:39;97553.56;;;13.74;100.00
18323;BME280;9287;49.456;11.064;2023-04-23T08:15:07;97544.91;;;13.65;100.00
18323;BME280;9287;49.456;11.064;2023-04-23T08:17:35;97540.31;;;13.83;100.00
18323;BME280;9287;49.456;11.064;2023-04-23T08:20:04;97538.78;;;13.93;100.00
18323;BME280;9287;49.456;11.064;2023-04-23T08:22:33;97533.19;;;13.75;100.00
18323;BME280;9287;49.456;11.064;2023-04-23T08:25:02;97526.63;;;13.90;100.00
18323;BME280;9287;49.456;11.064;2023-04-23T08:27:31;97537.22;;;13.96;100.00
18323;BME280;9287;49.456;11.064;2023-04-23T08:29:58;97541.25;;;14.16;100.00
18323;BME280;9287;49.456;11.064;2023-04-23T08:32:28;97542.88;;;14.38;100.00
18323;BME280;9287;49.456;11.064;2023-04-23T08:34:56;97546.75;;;14.19;100.00
18323;BME280;9287;49.456;11.064;2023-04-23T08:37:25;97543.03;;;15.16;100.00
18323;BME280;9287;49.456;11.064;2023-04-23T08:39:57;97538.31;;;15.27;100.00
18323;BME280;9287;49.456;11.064;2023-04-23T08:42:34;97537.53;;;15.09;100.00
18323;BME280;9287;49.456;11.064;2023-04-23T08:45:05;97550.09;;;15.07;100.00
18323;BME280;9287;49.456;11.064;2023-04-23T08:47:33;97546.97;;;14.87;100.00
18323;BME280;9287;49.456;11.064;2023-04-23T08:50:03;97536.72;;;14.80;100.00
18323;BME280;9287;49.456;11.064;2023-04-23T08:52:33;97546.13;;;14.72;100.00
18323;BME280;9287;49.456;11.064;2023-04-23T08:55:03;97542.22;;;14.70;100.00
18323;BME280;9287;49.456;11.064;2023-04-23T08:57:38;97548.13;;;14.82;100.00
18323;BME280;9287;49.456;11.064;2023-04-23T09:00:07;97548.56;;;15.23;100.00
18323;BME280;9287;49.456;11.064;2023-04-23T09:02:39;97548.91;;;14.97;100.00
18323;BME280;9287;49.456;11.064;2023-04-23T09:05:08;97555.19;;;15.08;100.00
18323;BME280;9287;49.456;11.064;2023-04-23T09:07:36;97551.69;;;15.18;100.00
18323;BME280;9287;49.456;11.064;2023-04-23T09:10:06;97554.03;;;15.16;100.00
18323;BME280;9287;49.456;11.064;2023-04-23T09:12:35;97561.09;;;15.10;100.00
18323;BME280;9287;49.456;11.064;2023-04-23T09:15:05;97553.25;;;15.05;100.00
18323;BME280;9287;49.456;11.064;2023-04-23T09:17:38;97551.66;;;14.97;100.00
18323;BME280;9287;49.456;11.064;2023-04-23T09:20:07;97550.47;;;14.70;100.00
18323;BME280;9287;49.456;11.064;2023-04-23T09:22:42;97545.38;;;14.79;100.00
18323;BME280;9287;49.456;11.064;2023-04-23T09:25:15;97545.38;;;14.72;100.00
18323;BME280;9287;49.456;11.064;2023-04-23T09:27:44;97533.56;;;14.68;100.00
18323;BME280;9287;49.456;11.064;2023-04-23T09:30:15;97535.53;;;14.78;100.00
18323;BME280;9287;49.456;11.064;2023-04-23T09:32:47;97525.34;;;14.82;100.00
18323;BME280;9287;49.456;11.064;2023-04-23T09:35:16;97535.94;;;14.94;100.00
18323;BME280;9287;49.456;11.064;2023-04-23T09:37:47;97532.44;;;15.11;100.00
18323;BME280;9287;49.456;11.064;2023-04-23T09:40:17;97525.72;;;15.48;100.00
18323;BME280;9287;49.456;11.064;2023-04-23T09:42:47;97523.75;;;15.48;100.00
18323;BME280;9287;49.456;11.064;2023-04-23T09:45:17;97528.09;;;15.53;100.00
18323;BME280;9287;49.456;11.064;2023-04-23T09:47:50;97522.53;;;15.88;100.00
18323;BME280;9287;49.456;11.064;2023-04-23T09:50:18;97515.47;;;15.80;100.00
18323;BME280;9287;49.456;11.064;2023-04-23T09:52:53;97517.84;;;15.71;100.00
18323;BME280;9287;49.456;11.064;2023-04-23T09:55:27;97519.84;;;15.31;100.00
18323;BME280;9287;49.456;11.064;2023-04-23T09:57:59;97510.03;;;15.38;100.00
18323;BME280;9287;49.456;11.064;2023-04-23T10:00:33;97524.16;;;15.29;100.00
18323;BME280;9287;49.456;11.064;2023-04-23T10:03:02;97517.13;;;15.03;100.00
18323;BME280;9287;49.456;11.064;2023-04-23T10:05:30;97515.53;;;15.16;100.00
18323;BME280;9287;49.456;11.064;2023-04-23T10:08:18;97509.59;;;15.43;100.00
18323;BME280;9287;49.456;11.064;2023-04-23T10:10:46;97512.38;;;15.32;100.00
18323;BME280;9287;49.456;11.064;2023-04-23T10:13:17;97513.94;;;15.51;100.00
18323;BME280;9287;49.456;11.064;2023-04-23T10:15:48;97509.22;;;15.55;100.00
18323;BME280;9287;49.456;11.064;2023-04-23T10:18:18;97505.63;;;15.86;100.00
18323;BME280;9287;49.456;11.064;2023-04-23T10:20:48;97511.47;;;15.99;100.00
18323;BME280;9287;49.456;11.064;2023-04-23T10:23:18;97506.81;;;15.78;100.00
18323;BME280;9287;49.456;11.064;2023-04-23T10:25:49;97509.81;;;16.16;100.00
18323;BME280;9287;49.456;11.064;2023-04-23T10:28:21;97502.97;;;15.58;100.00
18323;BME280;9287;49.456;11.064;2023-04-23T10:30:58;97495.69;;;16.80;98.76
18323;BME280;9287;49.456;11.064;2023-04-23T10:33:31;97494.53;;;17.70;90.30
18323;BME280;9287;49.456;11.064;2023-04-23T10:36:12;97496.16;;;18.32;83.78
18323;BME280;9287;49.456;11.064;2023-04-23T10:38:40;97489.63;;;19.03;77.41
18323;BME280;9287;49.456;11.064;2023-04-23T10:41:23;97487.28;;;19.91;69.35
18323;BME280;9287;49.456;11.064;2023-04-23T10:43:58;97493.50;;;19.95;62.51
18323;BME280;9287;49.456;11.064;2023-04-23T10:46:29;97488.03;;;20.11;60.63
18323;BME280;9287;49.456;11.064;2023-04-23T10:49:10;97492.66;;;19.98;60.96
18323;BME280;9287;49.456;11.064;2023-04-23T10:51:45;97474.69;;;20.62;60.12
18323;BME280;9287;49.456;11.064;2023-04-23T10:54:18;97468.25;;;21.63;56.17
18323;BME280;9287;49.456;11.064;2023-04-23T10:56:57;97475.91;;;21.87;54.68
18323;BME280;9287;49.456;11.064;2023-04-23T10:59:28;97457.38;;;21.97;54.08
18323;BME280;9287;49.456;11.064;2023-04-23T11:02:05;97466.75;;;21.45;55.61
18323;BME280;9287;49.456;11.064;2023-04-23T11:04:52;97465.63;;;21.72;53.04
18323;BME280;9287;49.456;11.064;2023-04-23T11:07:25;97461.72;;;21.69;54.25
18323;BME280;9287;49.456;11.064;2023-04-23T11:09:57;97449.72;;;20.78;55.71
18323;BME280;9287;49.456;11.064;2023-04-23T11:12:32;97461.66;;;19.64;64.49
18323;BME280;9287;49.456;11.064;2023-04-23T11:15:09;97441.72;;;19.29;66.00
18323;BME280;9287;49.456;11.064;2023-04-23T11:18:05;97448.69;;;19.80;60.79
18323;BME280;9287;49.456;11.064;2023-04-23T11:20:34;97442.31;;;18.94;61.96
18323;BME280;9287;49.456;11.064;2023-04-23T11:23:04;97441.34;;;18.27;69.65
18323;BME280;9287;49.456;11.064;2023-04-23T11:25:34;97431.94;;;18.51;63.03
18323;BME280;9287;49.456;11.064;2023-04-23T11:28:03;97429.72;;;18.39;65.84
18323;BME280;9287;49.456;11.064;2023-04-23T11:30:32;97433.06;;;18.27;67.24
18323;BME280;9287;49.456;11.064;2023-04-23T11:33:01;97424.91;;;17.86;68.79
18323;BME280;9287;49.456;11.064;2023-04-23T11:35:30;97418.59;;;17.14;77.41
18323;BME280;9287;49.456;11.064;2023-04-23T11:38:07;97424.00;;;17.62;73.19
18323;BME280;9287;49.456;11.064;2023-04-23T11:40:35;97419.16;;;18.03;71.57
18323;BME280;9287;49.456;11.064;2023-04-23T11:43:05;97416.16;;;18.48;67.19
18323;BME280;9287;49.456;11.064;2023-04-23T11:45:35;97422.72;;;18.85;64.08
18323;BME280;9287;49.456;11.064;2023-04-23T11:48:03;97409.72;;;18.55;66.02
18323;BME280;9287;49.456;11.064;2023-04-23T11:50:32;97419.16;;;19.07;63.88
18323;BME280;9287;49.456;11.064;2023-04-23T11:53:03;97407.13;;;19.61;59.64
18323;BME280;9287;49.456;11.064;2023-04-23T11:55:31;97407.34;;;20.26;54.91
18323;BME280;9287;49.456;11.064;2023-04-23T11:57:59;97399.44;;;19.48;57.65
18323;BME280;9287;49.456;11.064;2023-04-23T12:00:27;97397.19;;;19.83;56.49
18323;BME280;9287;49.456;11.064;2023-04-23T12:02:55;97397.66;;;20.34;53.24
18323;BME280;9287;49.456;11.064;2023-04-23T12:05:27;97391.38;;;20.66;51.05
18323;BME280;9287;49.456;11.064;2023-04-23T12:08:07;97393.03;;;20.79;51.22
18323;BME280;9287;49.456;11.064;2023-04-23T12:10:41;97384.16;;;20.36;51.88
18323;BME280;9287;49.456;11.064;2023-04-23T12:13:13;97381.47;;;19.96;51.81
18323;BME280;9287;49.456;11.064;2023-04-23T12:15:48;97371.91;;;19.81;52.59
18323;BME280;9287;49.456;11.064;2023-04-23T12:18:17;97367.88;;;18.80;56.89
18323;BME280;9287;49.456;11.064;2023-04-23T12:20:45;97373.94;;;19.18;55.38
18323;BME280;9287;49.456;11.064;2023-04-23T12:23:14;97352.47;;;19.65;53.63
18323;BME280;9287;49.456;11.064;2023-04-23T12:25:42;97357.44;;;19.54;53.01
18323;BME280;9287;49.456;11.064;2023-04-23T12:28:11;97360.38;;;19.23;53.63
18323;BME280;9287;49.456;11.064;2023-04-23T12:30:42;97350.28;;;19.92;52.22
18323;BME280;9287;49.456;11.064;2023-04-23T12:33:11;97343.59;;;20.26;49.57
18323;BME280;9287;49.456;11.064;2023-04-23T12:35:39;97339.31;;;20.57;48.72
18323;BME280;9287;49.456;11.064;2023-04-23T12:38:22;97340.13;;;20.22;48.89
18323;BME280;9287;49.456;11.064;2023-04-23T12:40:50;97338.81;;;19.74;51.32
18323;BME280;9287;49.456;11.064;2023-04-23T12:43:18;97344.34;;;19.34;51.80
18323;BME280;9287;49.456;11.064;2023-04-23T12:45:46;97341.56;;;19.15;52.44
18323;BME280;9287;49.456;11.064;2023-04-23T12:48:14;97337.66;;;19.12;53.20
18323;BME280;9287;49.456;11.064;2023-04-23T12:50:43;97342.97;;;19.03;54.18
18323;BME280;9287;49.456;11.064;2023-04-23T12:53:11;97341.81;;;18.03;58.83
18323;BME280;9287;49.456;11.064;2023-04-23T12:55:41;97329.28;;;17.99;61.11
18323;BME280;9287;49.456;11.064;2023-04-23T12:58:10;97333.16;;;18.01;61.28
18323;BME280;9287;49.456;11.064;2023-04-23T13:00:38;97324.56;;;17.96;62.87
18323;BME280;9287;49.456;11.064;2023-04-23T13:03:06;97325.09;;;18.14;61.10
18323;BME280;9287;49.456;11.064;2023-04-23T13:05:34;97325.22;;;18.03;63.10
18323;BME280;9287;49.456;11.064;2023-04-23T13:08:02;97319.28;;;18.32;59.94
18323;BME280;9287;49.456;11.064;2023-04-23T13:10:31;97329.38;;;18.42;59.69
18323;BME280;9287;49.456;11.064;2023-04-23T13:13:01;97317.88;;;18.20;61.35
18323;BME280;9287;49.456;11.064;2023-04-23T13:15:30;97308.78;;;18.47;61.26